Aviation Digital Data Service (ADDS)

Output produced by METARs form (1234 UTC 26 March 2019)
found at http://www.aviationweather.gov/metar/data/
 
Forecast for: KTUP (TUPELO , MS, US)
Text: KTUP 261121Z 2612/2712 02010KT P6SM BKN030
Forecast period: 1200 to 1500 UTC 26 March 2019
Forecast type: FROM: standard forecast or significant change
Winds: from the NNE (20 degrees) at 12 MPH (10 knots; 5.1 m/s)
Visibility: 6 or more miles 10+ km)
Ceiling: 3000 feet AGL
Clouds: broken clouds at 3000 feet AGL
Weather: no significant weather forecast for this period
Text: FM261500 02013G19KT P6SM SCT040
Forecast period: 1500 UTC 26 March 2019 to 0000 UTC 27 March 2019
Forecast type: FROM: standard forecast or significant change
Winds: from the NNE (20 degrees) at 15 MPH (13 knots; 6.7 m/s)
gusting to 22 MPH (19 knots; 9.8 m/s)
Visibility: 6 or more miles 10+ km)
Ceiling: at least 12,000 feet AGL
Clouds: scattered clouds at 4000 feet AGL
Weather: no significant weather forecast for this period
Text: FM270000 03004KT P6SM SKC
Forecast period: 0000 to 1200 UTC 27 March 2019
Forecast type: FROM: standard forecast or significant change
Winds: from the NNE (30 degrees) at 5 MPH (4 knots; 2.1 m/s)
Visibility: 6 or more miles 10+ km)
Clouds: clear skies
Weather: no significant weather forecast for this period